EKYT/AAL METAR and TAF weather

Enter ICAO airport designator
Station Type Date Time Source
EKYT METAR 2021/03/05 19:20 UTC NOAA

EKYT 051920Z AUTO 26005KT 9999 NCD M01/M03 Q1028


Station Type Date Time Source
EKYT Decoded METAR 2021/03/05 19:20 UTC NOAA

Aalborg, Denmark (EKYT) 57-06N 009-51E 13M
Mar 05, 2021 - 02:20 PM EST / 2021.03.05 1920 UTC
Wind: from the W (260 degrees) at 6 MPH (5 KT):0
Visibility: greater than 7 mile(s):0
Temperature: 30 F (-1 C)
Windchill: 23 F (-5 C):1
Dew Point: 26 F (-3 C)
Relative Humidity: 86%
Pressure (altimeter): 30.36 in. Hg (1028 hPa)
ob: EKYT 051920Z AUTO 26005KT 9999 NCD M01/M03 Q1028
cycle: 19

Station Type Date Time Source
EKYT TAF 2021/03/05 18:30 UTC NOAA

TAF EKYT 051713Z 0518/0618 32005KT 9999 FEW020
BECMG 0518/0520 25008KT
BECMG 0604/0607 29015G25KT
BECMG 0608/0611 30022G35KT

Example: see airport list